createdAt,value
2022-08-14T00:00:43.404Z,20.24
2022-08-14T00:01:43.390Z,20.18
2022-08-14T00:02:44.528Z,20.31
2022-08-14T00:03:43.370Z,20.28
2022-08-14T00:04:45.077Z,20.23
2022-08-14T00:05:44.236Z,20.30
2022-08-14T00:06:43.338Z,20.24
2022-08-14T00:07:43.363Z,20.25
2022-08-14T00:08:44.974Z,20.27
2022-08-14T00:09:55.624Z,20.38
2022-08-14T00:10:51.384Z,20.41
2022-08-14T00:11:44.325Z,20.47
2022-08-14T00:12:43.327Z,20.51
2022-08-14T00:13:43.313Z,20.51
2022-08-14T00:14:44.331Z,20.69
2022-08-14T00:15:44.324Z,20.64
2022-08-14T00:16:45.209Z,20.58
2022-08-14T00:17:48.125Z,20.54
2022-08-14T00:19:06.316Z,20.47
2022-08-14T00:19:44.284Z,20.50
2022-08-14T00:20:43.380Z,20.43
2022-08-14T00:21:43.248Z,20.35
2022-08-14T00:22:56.986Z,20.33
2022-08-14T00:23:44.244Z,20.41
2022-08-14T00:24:44.240Z,20.24
2022-08-14T00:25:43.259Z,20.20
2022-08-14T00:26:44.223Z,20.21
2022-08-14T00:27:43.214Z,20.12
2022-08-14T00:28:43.216Z,20.12
2022-08-14T00:29:43.198Z,20.05
2022-08-14T00:30:43.208Z,20.18
2022-08-14T00:31:44.243Z,20.05
2022-08-14T00:32:52.577Z,20.09
2022-08-14T00:33:51.733Z,20.05
2022-08-14T00:34:47.088Z,19.95
2022-08-14T00:36:36.817Z,19.95
2022-08-14T00:36:48.525Z,19.95
2022-08-14T00:37:44.143Z,19.94
2022-08-14T00:38:43.141Z,19.97
2022-08-14T00:39:43.177Z,19.97
2022-08-14T00:40:46.092Z,19.95
2022-08-14T00:41:43.122Z,20.00
2022-08-14T00:42:55.119Z,19.95
2022-08-14T00:43:44.101Z,20.03
2022-08-14T00:44:43.097Z,19.93
2022-08-14T00:45:43.105Z,19.87
2022-08-14T00:46:44.089Z,19.98
2022-08-14T00:47:44.901Z,20.05
2022-08-14T00:48:43.082Z,19.94
2022-08-14T00:49:43.651Z,19.94
2022-08-14T00:50:43.082Z,20.02
2022-08-14T00:51:43.058Z,20.00
2022-08-14T00:52:43.192Z,20.00
2022-08-14T00:53:43.710Z,20.05
2022-08-14T00:54:43.036Z,20.10
2022-08-14T00:55:43.032Z,20.03
2022-08-14T00:56:43.026Z,20.03
2022-08-14T00:57:43.018Z,20.05
2022-08-14T00:58:45.152Z,20.06
2022-08-14T00:59:43.008Z,20.25
2022-08-14T01:00:51.086Z,20.13
2022-08-14T01:01:43.084Z,20.12
2022-08-14T01:02:43.103Z,20.13
2022-08-14T01:03:42.977Z,20.15
2022-08-14T01:04:53.895Z,20.09
2022-08-14T01:05:51.591Z,20.12
2022-08-14T01:06:43.965Z,20.02
2022-08-14T01:07:53.952Z,20.02
2022-08-14T01:08:57.536Z,19.95
2022-08-14T01:09:43.941Z,19.94
2022-08-14T01:10:42.933Z,19.79
2022-08-14T01:11:45.207Z,19.78
2022-08-14T01:12:44.356Z,19.75
2022-08-14T01:13:43.396Z,19.65
2022-08-14T01:14:42.901Z,19.58
2022-08-14T01:15:58.552Z,19.66
2022-08-14T01:16:43.892Z,19.43
2022-08-14T01:17:45.751Z,19.43
2022-08-14T01:18:43.876Z,19.47
2022-08-14T01:19:43.873Z,19.58
2022-08-14T01:20:42.877Z,19.48
2022-08-14T01:21:47.148Z,19.47
2022-08-14T01:22:44.145Z,19.50
2022-08-14T01:23:46.942Z,19.60
2022-08-14T01:24:43.569Z,19.66
2022-08-14T01:25:42.837Z,19.72
2022-08-14T01:26:42.825Z,19.80
2022-08-14T01:27:57.246Z,19.97
2022-08-14T01:28:56.212Z,20.08
2022-08-14T01:30:01.174Z,20.06
2022-08-14T01:30:43.806Z,20.15
2022-08-14T01:31:42.796Z,20.10
2022-08-14T01:32:42.952Z,20.06
2022-08-14T01:35:15.723Z,20.10
2022-08-14T01:35:18.130Z,20.09
2022-08-14T01:36:04.701Z,20.15
2022-08-14T01:36:43.769Z,19.93
2022-08-14T01:37:44.180Z,19.80
2022-08-14T01:38:44.089Z,19.72
2022-08-14T01:39:43.833Z,19.54
2022-08-14T01:40:42.750Z,19.31
2022-08-14T01:41:42.735Z,19.28
2022-08-14T01:42:44.324Z,19.36
2022-08-14T01:43:42.729Z,19.43
2022-08-14T01:44:43.724Z,19.46
2022-08-14T01:45:42.708Z,19.42
2022-08-14T01:46:43.696Z,19.48
2022-08-14T01:47:42.693Z,19.51
2022-08-14T01:48:42.712Z,19.48
2022-08-14T01:49:46.125Z,19.40
2022-08-14T01:50:42.673Z,19.43
2022-08-14T01:51:42.666Z,19.32
2022-08-14T01:52:59.087Z,19.15
2022-08-14T01:53:43.668Z,19.15
2022-08-14T01:54:42.644Z,19.11
2022-08-14T01:55:42.640Z,19.14
2022-08-14T01:56:42.630Z,19.13
2022-08-14T01:58:00.653Z,19.15
2022-08-14T01:58:57.183Z,19.08
2022-08-14T01:59:43.760Z,19.05
2022-08-14T02:00:42.595Z,19.06
2022-08-14T02:01:51.337Z,19.08
2022-08-14T02:02:43.588Z,19.10
2022-08-14T02:03:42.580Z,19.01
2022-08-14T02:04:57.172Z,18.99
2022-08-14T02:05:43.582Z,19.13
2022-08-14T02:06:42.566Z,19.11
2022-08-14T02:07:55.558Z,19.13
2022-08-14T02:08:52.535Z,19.17
2022-08-14T02:09:43.568Z,19.13
2022-08-14T02:10:47.061Z,19.10
2022-08-14T02:11:43.532Z,19.01
2022-08-14T02:12:42.676Z,19.05
2022-08-14T02:13:43.127Z,19.14
2022-08-14T02:14:59.221Z,19.02
2022-08-14T02:15:43.935Z,19.02
2022-08-14T02:16:42.492Z,18.97
2022-08-14T02:17:42.488Z,18.95
2022-08-14T02:18:42.484Z,18.99
2022-08-14T02:19:42.471Z,18.91
2022-08-14T02:20:42.505Z,18.90
2022-08-14T02:21:47.054Z,18.94
2022-08-14T02:22:47.369Z,18.84
2022-08-14T02:23:42.456Z,18.91
2022-08-14T02:24:45.100Z,18.80
2022-08-14T02:25:42.447Z,18.77
2022-08-14T02:26:58.427Z,18.67
2022-08-14T02:28:22.349Z,18.70
2022-08-14T02:28:58.436Z,18.58
2022-08-14T02:30:00.354Z,18.57
2022-08-14T02:30:43.416Z,18.55
2022-08-14T02:31:43.889Z,18.54
2022-08-14T02:32:42.395Z,18.34
2022-08-14T02:33:42.388Z,18.39
2022-08-14T02:34:42.374Z,18.50
2022-08-14T02:35:42.366Z,18.40
2022-08-14T02:37:04.554Z,18.42
2022-08-14T02:37:48.136Z,18.31
2022-08-14T02:38:43.351Z,18.42
2022-08-14T02:39:42.366Z,18.50
2022-08-14T02:40:42.385Z,18.55
2022-08-14T02:41:45.157Z,18.58
2022-08-14T02:42:55.137Z,18.44
2022-08-14T02:43:46.061Z,18.58
2022-08-14T02:44:43.099Z,18.40
2022-08-14T02:45:45.216Z,18.39
2022-08-14T02:46:42.296Z,18.44
2022-08-14T02:47:42.295Z,18.46
2022-08-14T02:49:01.271Z,18.43
2022-08-14T02:49:43.273Z,18.42
2022-08-14T02:50:42.267Z,18.40
2022-08-14T02:51:43.275Z,18.34
2022-08-14T02:52:57.352Z,18.31
2022-08-14T02:53:43.247Z,18.37
2022-08-14T02:54:42.234Z,18.39
2022-08-14T02:55:42.223Z,18.27
2022-08-14T02:57:15.250Z,18.18
2022-08-14T02:57:43.237Z,18.18
2022-08-14T02:58:42.385Z,18.13
2022-08-14T02:59:43.325Z,18.10
2022-08-14T03:00:42.199Z,17.95
2022-08-14T03:01:50.508Z,18.07
2022-08-14T03:02:56.491Z,17.99
2022-08-14T03:03:43.182Z,18.00
2022-08-14T03:04:43.124Z,17.95
2022-08-14T03:05:42.167Z,17.99
2022-08-14T03:06:57.336Z,17.94
2022-08-14T03:07:43.179Z,17.99
2022-08-14T03:08:45.991Z,17.89
2022-08-14T03:10:26.588Z,17.85
2022-08-14T03:10:48.681Z,17.97
2022-08-14T03:11:44.652Z,17.95
2022-08-14T03:12:42.119Z,17.99
2022-08-14T03:13:42.114Z,17.95
2022-08-14T03:14:42.115Z,18.02
2022-08-14T03:15:42.099Z,18.06
2022-08-14T03:16:43.091Z,18.03
2022-08-14T03:17:56.489Z,18.07
2022-08-14T03:18:43.095Z,18.18
2022-08-14T03:19:42.075Z,18.09
2022-08-14T03:20:42.083Z,18.10
2022-08-14T03:21:42.067Z,18.13
2022-08-14T03:22:42.394Z,18.21
2022-08-14T03:23:43.058Z,18.07
2022-08-14T03:24:42.038Z,18.09
2022-08-14T03:25:42.046Z,18.07
2022-08-14T03:26:42.026Z,18.06
2022-08-14T03:27:48.047Z,18.15
2022-08-14T03:28:43.019Z,18.09
2022-08-14T03:29:42.003Z,18.02
2022-08-14T03:30:42.026Z,18.07
2022-08-14T03:31:41.990Z,18.09
2022-08-14T03:32:42.035Z,18.03
2022-08-14T03:33:41.974Z,18.03
2022-08-14T03:34:52.863Z,17.99
2022-08-14T03:35:59.915Z,17.94
2022-08-14T03:37:50.734Z,17.97
2022-08-14T03:39:10.793Z,17.88
2022-08-14T03:39:16.051Z,17.92
2022-08-14T03:39:42.990Z,17.84
2022-08-14T03:40:41.958Z,17.82
2022-08-14T03:41:41.926Z,17.88
2022-08-14T03:42:41.922Z,17.82
2022-08-14T03:43:41.918Z,17.88
2022-08-14T03:45:19.644Z,18.03
2022-08-14T03:45:48.000Z,18.12
2022-08-14T03:46:54.544Z,18.28
2022-08-14T03:47:46.577Z,18.36
2022-08-14T03:48:42.871Z,18.43
2022-08-14T03:49:42.636Z,18.42
2022-08-14T03:50:41.870Z,18.43
2022-08-14T03:51:42.869Z,18.34
2022-08-14T03:52:48.057Z,18.22
2022-08-14T03:53:43.846Z,18.18
2022-08-14T03:54:41.830Z,18.17
2022-08-14T03:55:41.834Z,18.34
2022-08-14T03:56:41.822Z,18.25
2022-08-14T03:57:42.571Z,18.31
2022-08-14T03:58:41.803Z,18.24
2022-08-14T03:59:41.802Z,18.19
2022-08-14T04:00:44.638Z,18.13
2022-08-14T04:01:45.792Z,18.06
2022-08-14T04:02:46.715Z,17.88
2022-08-14T04:03:41.770Z,17.88
2022-08-14T04:04:41.757Z,17.89
2022-08-14T04:05:42.772Z,17.87
2022-08-14T04:06:48.638Z,17.88
2022-08-14T04:08:00.285Z,17.89
2022-08-14T04:08:42.733Z,17.84
2022-08-14T04:09:41.729Z,17.84
2022-08-14T04:10:41.721Z,17.76
2022-08-14T04:11:41.713Z,17.78
2022-08-14T04:12:41.717Z,17.74
2022-08-14T04:13:42.711Z,17.70
2022-08-14T04:14:42.210Z,17.73
2022-08-14T04:16:01.339Z,17.63
2022-08-14T04:16:42.677Z,17.66
2022-08-14T04:17:41.709Z,17.59
2022-08-14T04:18:42.343Z,17.55
2022-08-14T04:19:41.653Z,17.51
2022-08-14T04:20:54.196Z,17.30
2022-08-14T04:22:03.787Z,17.33
2022-08-14T04:22:42.761Z,17.33
2022-08-14T04:23:41.645Z,17.22
2022-08-14T04:24:41.618Z,17.28
2022-08-14T04:25:41.617Z,17.29
2022-08-14T04:26:43.011Z,17.35
2022-08-14T04:28:01.518Z,17.47
2022-08-14T04:29:01.894Z,17.48
2022-08-14T04:29:44.856Z,17.71
2022-08-14T04:30:42.175Z,17.81
2022-08-14T04:32:58.578Z,17.91
2022-08-14T04:33:10.596Z,18.04
2022-08-14T04:33:42.567Z,18.28
2022-08-14T04:34:41.980Z,18.37
2022-08-14T04:35:55.285Z,18.57
2022-08-14T04:36:42.543Z,18.59
2022-08-14T04:37:41.525Z,18.61
2022-08-14T04:38:41.549Z,18.61
2022-08-14T04:39:46.503Z,18.61
2022-08-14T04:40:42.510Z,18.68
2022-08-14T04:41:41.509Z,18.59
2022-08-14T04:42:47.315Z,18.62
2022-08-14T04:43:42.512Z,18.55
2022-08-14T04:44:41.578Z,18.55
2022-08-14T04:45:42.470Z,18.44
2022-08-14T04:46:57.064Z,18.40
2022-08-14T04:47:46.483Z,18.37
2022-08-14T04:48:43.438Z,18.31
2022-08-14T04:49:56.724Z,18.19
2022-08-14T04:50:44.587Z,18.19
2022-08-14T04:51:46.904Z,18.24
2022-08-14T04:52:42.462Z,18.18
2022-08-14T04:53:43.390Z,18.24
2022-08-14T04:54:41.418Z,18.28
2022-08-14T04:55:41.397Z,18.12
2022-08-14T04:56:41.473Z,18.21
2022-08-14T04:57:41.386Z,18.09
2022-08-14T04:58:41.382Z,18.10
2022-08-14T04:59:42.943Z,18.06
2022-08-14T05:00:41.393Z,18.04
2022-08-14T05:01:41.401Z,18.06
2022-08-14T05:02:41.474Z,18.04
2022-08-14T05:03:41.341Z,18.15
2022-08-14T05:04:45.311Z,18.10
2022-08-14T05:05:41.334Z,18.15
2022-08-14T05:06:41.318Z,18.18
2022-08-14T05:07:54.703Z,18.28
2022-08-14T05:08:56.951Z,18.36
2022-08-14T05:09:43.988Z,18.42
2022-08-14T05:10:44.085Z,18.34
2022-08-14T05:11:42.321Z,18.34
2022-08-14T05:13:13.449Z,18.34
2022-08-14T05:14:53.464Z,18.33
2022-08-14T05:15:42.270Z,18.36
2022-08-14T05:16:41.269Z,18.37
2022-08-14T05:17:44.174Z,18.33
2022-08-14T05:19:17.632Z,18.31
2022-08-14T05:19:44.941Z,18.27
2022-08-14T05:21:57.105Z,18.27
2022-08-14T05:21:59.542Z,18.24
2022-08-14T05:22:42.462Z,18.28
2022-08-14T05:23:41.921Z,18.25
2022-08-14T05:24:41.193Z,18.25
2022-08-14T05:25:41.190Z,18.19
2022-08-14T05:26:41.185Z,18.31
2022-08-14T05:27:41.230Z,18.25
2022-08-14T05:28:41.174Z,18.27
2022-08-14T05:29:41.162Z,18.29
2022-08-14T05:30:41.150Z,18.31
2022-08-14T05:31:41.142Z,18.27
2022-08-14T05:32:41.154Z,18.25
2022-08-14T05:33:42.137Z,18.28
2022-08-14T05:34:41.134Z,18.42
2022-08-14T05:35:42.448Z,18.42
2022-08-14T05:36:41.118Z,18.49
2022-08-14T05:37:41.121Z,18.58
2022-08-14T05:38:41.141Z,18.47
2022-08-14T05:39:41.221Z,18.59
2022-08-14T05:40:41.085Z,18.59
2022-08-14T05:41:53.529Z,18.72
2022-08-14T05:42:42.093Z,18.73
2022-08-14T05:43:41.964Z,18.77
2022-08-14T05:44:41.057Z,18.90
2022-08-14T05:45:41.049Z,18.94
2022-08-14T05:46:41.037Z,18.99
2022-08-14T05:47:41.055Z,19.05
2022-08-14T05:48:43.043Z,19.11
2022-08-14T05:49:41.025Z,19.08
2022-08-14T05:50:41.282Z,19.20
2022-08-14T05:51:41.030Z,19.18
2022-08-14T05:52:41.065Z,19.13
2022-08-14T05:53:42.432Z,19.11
2022-08-14T05:54:40.997Z,19.06
2022-08-14T05:55:44.275Z,19.08
2022-08-14T05:56:40.979Z,19.17
2022-08-14T05:57:40.995Z,18.97
2022-08-14T05:58:41.654Z,19.06
2022-08-14T05:59:40.958Z,19.05
2022-08-14T06:00:40.953Z,18.97
2022-08-14T06:01:40.957Z,18.99
2022-08-14T06:02:41.009Z,19.11
2022-08-14T06:03:40.941Z,19.14
2022-08-14T06:04:40.929Z,19.20
2022-08-14T06:05:40.925Z,19.36
2022-08-14T06:06:40.909Z,19.43
2022-08-14T06:07:40.905Z,19.66
2022-08-14T06:08:41.464Z,19.70
2022-08-14T06:09:40.933Z,19.66
2022-08-14T06:10:40.889Z,19.73
2022-08-14T06:11:40.885Z,19.76
2022-08-14T06:12:55.691Z,19.75
2022-08-14T06:13:45.262Z,19.75
2022-08-14T06:14:40.869Z,19.83
2022-08-14T06:15:40.849Z,19.80
2022-08-14T06:16:40.853Z,19.86
2022-08-14T06:17:46.342Z,19.97
2022-08-14T06:18:40.846Z,19.98
2022-08-14T06:19:40.896Z,20.20
2022-08-14T06:20:40.832Z,20.20
2022-08-14T06:21:40.817Z,20.13
2022-08-14T06:22:40.867Z,20.16
2022-08-14T06:23:40.805Z,20.18
2022-08-14T06:24:43.928Z,20.33
2022-08-14T06:25:40.797Z,20.47
2022-08-14T06:26:40.781Z,20.64
2022-08-14T06:27:40.781Z,20.72
2022-08-14T06:28:41.044Z,20.79
2022-08-14T06:29:40.781Z,20.96
2022-08-14T06:30:45.678Z,21.11
2022-08-14T06:31:41.753Z,21.13
2022-08-14T06:32:42.197Z,21.20
2022-08-14T06:35:02.497Z,21.30
2022-08-14T06:35:04.018Z,21.42
2022-08-14T06:35:41.714Z,21.66
2022-08-14T06:36:40.729Z,21.79
2022-08-14T06:37:41.336Z,21.85
2022-08-14T06:38:40.702Z,21.95
2022-08-14T06:39:40.721Z,22.10
2022-08-14T06:40:42.947Z,22.37
2022-08-14T06:41:59.501Z,22.41
2022-08-14T06:42:41.679Z,22.69
2022-08-14T06:43:45.335Z,22.65
2022-08-14T06:44:41.668Z,22.77
2022-08-14T06:45:40.664Z,22.90
2022-08-14T06:46:40.660Z,22.97
2022-08-14T06:47:43.969Z,22.93
2022-08-14T06:48:42.019Z,22.99
2022-08-14T06:49:45.021Z,23.12
2022-08-14T06:50:40.625Z,23.20
2022-08-14T06:51:44.893Z,23.40
2022-08-14T06:52:40.667Z,23.55
2022-08-14T06:53:41.604Z,23.70
2022-08-14T06:54:40.596Z,23.65
2022-08-14T06:55:57.854Z,23.77
2022-08-14T06:56:44.477Z,23.60
2022-08-14T06:57:41.584Z,23.55
2022-08-14T06:58:40.587Z,23.58
2022-08-14T06:59:40.670Z,23.39
2022-08-14T07:00:40.568Z,23.29
2022-08-14T07:01:41.583Z,23.20
2022-08-14T07:02:43.613Z,23.22
2022-08-14T07:03:40.563Z,23.09
2022-08-14T07:04:40.526Z,22.99
2022-08-14T07:05:41.527Z,23.04
2022-08-14T07:06:46.515Z,23.05
2022-08-14T07:07:42.703Z,23.20
2022-08-14T07:08:40.515Z,23.34
2022-08-14T07:09:50.437Z,23.52
2022-08-14T07:10:41.500Z,23.58
2022-08-14T07:11:40.511Z,23.53
2022-08-14T07:13:00.887Z,23.49
2022-08-14T07:13:41.513Z,23.62
2022-08-14T07:14:40.490Z,23.71
2022-08-14T07:15:42.365Z,23.86
2022-08-14T07:16:40.453Z,24.08
2022-08-14T07:17:40.453Z,24.34
2022-08-14T07:18:40.778Z,24.32
2022-08-14T07:19:40.441Z,24.38
2022-08-14T07:20:40.448Z,24.39
2022-08-14T07:21:40.426Z,24.59
2022-08-14T07:22:55.977Z,24.79
2022-08-14T07:23:44.073Z,25.01
2022-08-14T07:24:40.442Z,25.07
2022-08-14T07:25:40.394Z,25.16
2022-08-14T07:26:41.094Z,25.39
2022-08-14T07:27:42.811Z,25.44
2022-08-14T07:28:43.651Z,25.50
2022-08-14T07:29:40.442Z,24.97
2022-08-14T07:30:41.921Z,24.38
2022-08-14T07:31:41.379Z,24.42
2022-08-14T07:32:40.436Z,24.38
2022-08-14T07:33:42.033Z,24.31
2022-08-14T07:34:41.294Z,24.24
2022-08-14T07:35:57.319Z,24.29
2022-08-14T07:36:58.122Z,24.16
2022-08-14T07:37:41.318Z,23.90
2022-08-14T07:38:40.313Z,24.17
2022-08-14T07:39:40.371Z,24.29
2022-08-14T07:40:40.290Z,24.17
2022-08-14T07:41:42.248Z,24.35
2022-08-14T07:42:41.128Z,24.49
2022-08-14T07:43:40.266Z,24.44
2022-08-14T07:44:46.123Z,24.50
2022-08-14T07:45:41.253Z,24.42
2022-08-14T07:46:40.263Z,24.39
2022-08-14T07:47:40.249Z,24.34
2022-08-14T07:48:40.250Z,24.54
2022-08-14T07:49:40.245Z,24.67
2022-08-14T07:50:40.229Z,24.50
2022-08-14T07:51:41.217Z,24.67
2022-08-14T07:52:40.221Z,24.67
2022-08-14T07:53:40.859Z,24.85
2022-08-14T07:54:40.213Z,24.80
2022-08-14T07:55:40.193Z,25.02
2022-08-14T07:56:47.715Z,25.24
2022-08-14T07:57:41.191Z,25.34
2022-08-14T07:58:51.830Z,25.49
2022-08-14T07:59:43.576Z,25.64
2022-08-14T08:00:40.162Z,25.74
2022-08-14T08:01:40.144Z,25.77
2022-08-14T08:02:41.215Z,25.80
2022-08-14T08:03:40.214Z,26.05
2022-08-14T08:04:41.161Z,26.20
2022-08-14T08:05:40.129Z,26.36
2022-08-14T08:06:40.129Z,26.47
2022-08-14T08:07:40.120Z,26.47
2022-08-14T08:08:40.927Z,26.57
2022-08-14T08:09:40.117Z,26.80
2022-08-14T08:11:01.255Z,26.77
2022-08-14T08:11:41.089Z,26.76
2022-08-14T08:12:40.102Z,26.74
2022-08-14T08:13:40.077Z,26.57
2022-08-14T08:14:56.305Z,26.37
2022-08-14T08:15:41.077Z,26.50
2022-08-14T08:16:40.061Z,26.55
2022-08-14T08:17:53.172Z,26.79
2022-08-14T08:18:41.058Z,26.95
2022-08-14T08:19:40.037Z,26.87
2022-08-14T08:20:40.069Z,26.98
2022-08-14T08:21:43.877Z,27.21
2022-08-14T08:22:40.018Z,27.47
2022-08-14T08:23:50.847Z,27.69
2022-08-14T08:24:41.009Z,27.96
2022-08-14T08:25:40.480Z,28.17
2022-08-14T08:26:40.005Z,28.51
2022-08-14T08:27:40.009Z,28.69
2022-08-14T08:28:41.530Z,29.03
2022-08-14T08:29:39.965Z,29.23
2022-08-14T08:30:49.373Z,29.62
2022-08-14T08:31:40.986Z,29.65
2022-08-14T08:32:40.021Z,29.52
2022-08-14T08:33:40.209Z,29.50
2022-08-14T08:34:39.945Z,28.90
2022-08-14T08:35:47.238Z,29.23
2022-08-14T08:36:40.923Z,29.37
2022-08-14T08:37:43.536Z,29.77
2022-08-14T08:39:17.445Z,30.18
2022-08-14T08:39:42.343Z,30.14
2022-08-14T08:40:42.231Z,29.94
2022-08-14T08:41:39.905Z,29.71
2022-08-14T08:42:43.271Z,29.57
2022-08-14T08:43:46.247Z,30.09
2022-08-14T08:44:40.877Z,30.31
2022-08-14T08:45:39.874Z,30.49
2022-08-14T08:46:39.873Z,30.84
2022-08-14T08:47:39.877Z,30.29
2022-08-14T08:48:46.718Z,30.68
2022-08-14T08:49:42.953Z,31.04
2022-08-14T08:51:30.840Z,31.45
2022-08-14T08:52:31.428Z,31.26
2022-08-14T08:53:28.189Z,31.06
2022-08-14T08:54:30.892Z,30.50
2022-08-14T08:55:27.173Z,30.38
2022-08-14T08:56:30.796Z,30.62
2022-08-14T08:57:28.165Z,29.53
2022-08-14T08:58:27.158Z,29.11
2022-08-14T08:59:31.645Z,29.40
2022-08-14T09:00:27.280Z,29.94
2022-08-14T09:01:27.205Z,30.40
2022-08-14T09:02:27.723Z,30.57
2022-08-14T09:03:27.383Z,31.38
2022-08-14T09:04:27.117Z,31.73
2022-08-14T09:05:27.114Z,31.45
2022-08-14T09:07:00.974Z,31.77
2022-08-14T09:07:28.237Z,31.88
2022-08-14T09:08:31.218Z,30.83
2022-08-14T09:09:33.173Z,29.89
2022-08-14T09:10:28.089Z,29.75
2022-08-14T09:11:27.125Z,30.08
2022-08-14T09:12:27.162Z,30.31
2022-08-14T09:13:30.435Z,30.57
2022-08-14T09:14:27.065Z,31.01
2022-08-14T09:15:27.046Z,31.43
2022-08-14T09:16:28.053Z,31.15
2022-08-14T09:17:27.050Z,30.83
2022-08-14T09:18:27.229Z,31.53
2022-08-14T09:19:27.021Z,31.77
2022-08-14T09:20:30.612Z,32.33
2022-08-14T09:21:31.382Z,33.29
2022-08-14T09:22:35.483Z,33.37
2022-08-14T09:23:34.929Z,33.11
2022-08-14T09:24:35.418Z,33.33
2022-08-14T09:26:00.041Z,33.76
2022-08-14T09:26:28.580Z,33.86
2022-08-14T09:27:26.993Z,32.80
2022-08-14T09:28:26.998Z,31.64
2022-08-14T09:29:28.929Z,31.75
2022-08-14T09:30:32.334Z,31.96
2022-08-14T09:31:27.968Z,32.13
2022-08-14T09:32:59.218Z,32.14
2022-08-14T09:33:27.976Z,32.59
2022-08-14T09:34:28.387Z,31.92
2022-08-14T09:35:27.789Z,32.32
2022-08-14T09:36:26.939Z,32.30
2022-08-14T09:37:26.932Z,32.80
2022-08-14T09:38:27.346Z,33.60
2022-08-14T09:39:26.951Z,33.92
2022-08-14T09:40:29.388Z,33.51
2022-08-14T09:41:26.904Z,33.48
2022-08-14T09:42:33.149Z,33.94
2022-08-14T09:43:27.932Z,34.57
2022-08-14T09:44:26.912Z,35.13
2022-08-14T09:45:30.376Z,34.29
2022-08-14T09:46:27.881Z,33.78
2022-08-14T09:47:26.882Z,33.87
2022-08-14T09:48:30.064Z,33.51
2022-08-14T09:49:26.876Z,32.61
2022-08-14T09:50:27.021Z,31.33
2022-08-14T09:51:26.860Z,31.11
2022-08-14T09:52:33.870Z,31.68
2022-08-14T09:54:13.450Z,31.99
2022-08-14T09:54:27.857Z,31.65
2022-08-14T09:55:27.911Z,32.52
2022-08-14T09:56:30.969Z,33.39
2022-08-14T09:57:27.497Z,33.68
2022-08-14T09:58:26.820Z,33.33
2022-08-14T09:59:28.263Z,33.19
2022-08-14T10:00:30.478Z,33.37
2022-08-14T10:01:26.817Z,33.95
2022-08-14T10:02:36.863Z,33.52
2022-08-14T10:03:28.606Z,32.77
2022-08-14T10:04:33.940Z,32.67
2022-08-14T10:05:27.816Z,32.95
2022-08-14T10:06:28.340Z,33.07
2022-08-14T10:07:26.776Z,32.64
2022-08-14T10:08:26.870Z,32.05
2022-08-14T10:09:26.768Z,31.48
2022-08-14T10:10:27.747Z,31.53
2022-08-14T10:11:34.834Z,32.02
2022-08-14T10:12:29.233Z,32.36
2022-08-14T10:13:26.821Z,32.67
2022-08-14T10:14:34.982Z,32.85
2022-08-14T10:15:29.870Z,32.64
2022-08-14T10:16:27.336Z,32.44
2022-08-14T10:17:26.718Z,33.07
2022-08-14T10:18:26.745Z,33.27
2022-08-14T10:19:26.708Z,33.10
2022-08-14T10:20:39.414Z,33.31
2022-08-14T10:21:27.724Z,33.85
2022-08-14T10:23:12.519Z,33.22
2022-08-14T10:23:28.177Z,33.15
2022-08-14T10:24:36.371Z,33.22
2022-08-14T10:25:27.672Z,33.48
2022-08-14T10:26:28.473Z,33.83
2022-08-14T10:27:27.010Z,33.65
2022-08-14T10:28:51.429Z,33.64
2022-08-14T10:29:27.651Z,34.09
2022-08-14T10:30:26.652Z,34.41
2022-08-14T10:31:26.942Z,34.64
2022-08-14T10:32:29.255Z,35.45
2022-08-14T10:33:27.636Z,36.04
2022-08-14T10:34:29.179Z,35.60
2022-08-14T10:35:30.861Z,34.64
2022-08-14T10:36:34.782Z,33.48
2022-08-14T10:37:28.061Z,33.03
2022-08-14T10:38:26.593Z,33.31
2022-08-14T10:39:26.628Z,33.48
2022-08-14T10:40:44.248Z,33.58
2022-08-14T10:41:31.850Z,33.22
2022-08-14T10:42:27.599Z,32.52
2022-08-14T10:43:26.681Z,32.30
2022-08-14T10:44:29.805Z,32.71
2022-08-14T10:45:26.582Z,32.21
2022-08-14T10:47:39.119Z,31.96
2022-08-14T10:47:39.891Z,32.36
2022-08-14T10:48:38.303Z,31.70
2022-08-14T10:49:27.555Z,31.58
2022-08-14T10:50:26.543Z,32.47
2022-08-14T10:51:26.709Z,32.57
2022-08-14T10:52:26.543Z,32.27
2022-08-14T10:53:26.523Z,32.20
2022-08-14T10:54:40.089Z,32.55
2022-08-14T10:55:27.528Z,33.03
2022-08-14T10:56:33.875Z,32.70
2022-08-14T10:57:27.511Z,32.11
2022-08-14T10:58:26.508Z,31.28
2022-08-14T10:59:31.291Z,30.47
2022-08-14T11:00:30.336Z,30.08
2022-08-14T11:01:27.495Z,29.81
2022-08-14T11:02:45.300Z,29.68
2022-08-14T11:03:35.779Z,29.93
2022-08-14T11:04:27.671Z,29.77
2022-08-14T11:05:26.487Z,29.82
2022-08-14T11:06:27.254Z,29.71
2022-08-14T11:07:26.443Z,29.92
2022-08-14T11:08:26.444Z,30.07
2022-08-14T11:09:31.550Z,30.14
2022-08-14T11:10:27.870Z,30.03
2022-08-14T11:11:26.428Z,30.05
2022-08-14T11:12:34.188Z,30.27
2022-08-14T11:13:27.414Z,30.30
2022-08-14T11:14:26.690Z,31.31
2022-08-14T11:15:26.412Z,31.31
2022-08-14T11:16:26.403Z,32.18
2022-08-14T11:17:26.395Z,32.95
2022-08-14T11:18:35.837Z,33.64
2022-08-14T11:19:27.388Z,33.90
2022-08-14T11:20:26.410Z,34.07
2022-08-14T11:21:26.379Z,33.68
2022-08-14T11:22:55.537Z,33.23
2022-08-14T11:23:27.356Z,33.14
2022-08-14T11:24:54.119Z,32.61
2022-08-14T11:25:43.426Z,32.76
2022-08-14T11:26:27.335Z,32.93
2022-08-14T11:27:33.473Z,32.25
2022-08-14T11:28:47.570Z,31.82
2022-08-14T11:29:27.317Z,31.40
2022-08-14T11:30:50.273Z,30.45
2022-08-14T11:31:27.311Z,29.92
2022-08-14T11:32:27.307Z,29.66
2022-08-14T11:33:26.306Z,30.54
2022-08-14T11:34:32.386Z,31.33
2022-08-14T11:35:27.295Z,31.77
2022-08-14T11:36:35.426Z,32.00
2022-08-14T11:37:36.921Z,31.95
2022-08-14T11:38:28.275Z,32.61
2022-08-14T11:39:34.588Z,32.93
2022-08-14T11:40:28.731Z,33.06
2022-08-14T11:41:26.274Z,33.67
2022-08-14T11:42:56.641Z,34.24
2022-08-14T11:43:29.568Z,33.17
2022-08-14T11:44:46.619Z,32.40
2022-08-14T11:45:29.817Z,32.02
2022-08-14T11:46:29.495Z,31.64
2022-08-14T11:47:26.225Z,31.99
2022-08-14T11:49:02.563Z,32.11
2022-08-14T11:49:27.210Z,31.80
2022-08-14T11:50:37.216Z,31.60
2022-08-14T11:51:30.576Z,31.88
2022-08-14T11:52:26.182Z,31.77
2022-08-14T11:53:26.190Z,31.50
2022-08-14T11:54:35.026Z,31.26
2022-08-14T11:55:27.174Z,31.48
2022-08-14T11:56:30.572Z,32.18
2022-08-14T11:57:26.151Z,32.07
2022-08-14T11:58:26.155Z,31.85
2022-08-14T11:59:32.846Z,31.24
2022-08-14T12:00:31.904Z,30.62
2022-08-14T12:01:27.160Z,30.61
2022-08-14T12:03:01.703Z,30.86
2022-08-14T12:03:46.263Z,30.80
2022-08-14T12:04:32.516Z,30.69
2022-08-14T12:05:27.146Z,31.42
2022-08-14T12:06:29.043Z,31.93
2022-08-14T12:07:27.129Z,32.20
2022-08-14T12:08:26.114Z,31.85
2022-08-14T12:09:26.093Z,31.45
2022-08-14T12:10:42.689Z,31.24
2022-08-14T12:11:27.086Z,30.99
2022-08-14T12:12:36.166Z,30.93
2022-08-14T12:13:27.394Z,31.49
2022-08-14T12:14:29.811Z,31.82
2022-08-14T12:15:27.150Z,31.58
2022-08-14T12:16:26.041Z,31.64
2022-08-14T12:17:26.030Z,31.46
2022-08-14T12:18:26.034Z,31.40
2022-08-14T12:19:26.026Z,31.42
2022-08-14T12:20:29.836Z,31.60
2022-08-14T12:21:27.255Z,31.45
2022-08-14T12:22:29.730Z,31.17
2022-08-14T12:23:26.010Z,30.78
2022-08-14T12:24:35.980Z,31.02
2022-08-14T12:25:26.977Z,31.40
2022-08-14T12:26:39.707Z,31.65
2022-08-14T12:27:26.978Z,31.84
2022-08-14T12:28:26.932Z,31.96
2022-08-14T12:29:26.995Z,31.82
2022-08-14T12:30:26.862Z,31.65
2022-08-14T12:31:26.973Z,31.73
2022-08-14T12:32:25.962Z,31.72
2022-08-14T12:33:26.925Z,31.68
2022-08-14T12:34:25.926Z,31.43
2022-08-14T12:35:25.941Z,31.42
2022-08-14T12:36:25.933Z,31.48
2022-08-14T12:37:25.934Z,31.53
2022-08-14T12:38:25.911Z,31.36
2022-08-14T12:39:25.946Z,31.64
2022-08-14T12:40:25.896Z,31.87
2022-08-14T12:41:28.137Z,32.30
2022-08-14T12:42:33.983Z,32.67
2022-08-14T12:43:27.878Z,32.40
2022-08-14T12:44:25.878Z,32.15
2022-08-14T12:45:25.858Z,31.95
2022-08-14T12:46:27.516Z,31.62
2022-08-14T12:47:25.865Z,30.99
2022-08-14T12:48:31.823Z,30.76
2022-08-14T12:49:26.842Z,30.71
2022-08-14T12:50:26.829Z,30.59
2022-08-14T12:51:27.283Z,30.64
2022-08-14T12:52:36.230Z,30.81
2022-08-14T12:53:26.873Z,31.08
2022-08-14T12:54:28.107Z,31.23